M I D A S
Marine Information and Data Acquisition System
Tripno 142 of the Zeeleeuw from 2001-07-19 06:59:27 to 2001-07-19 14:35:00
Back to CruiseResearch ActivitiesStationsMapUnderway DataData graphs

EquipmentUnitsComments
TimeDGPSUTC
LatitudeDGPSDM.mWGS84
LongitudeDGPSDM.mWGS84
SpeedMeteo Stationm/sRelative wind speed
DirectionMeteo StationdegRelative wind direction
TemperatureMeteo Stationdeg CelciusAir temperature
PressureMeteo StationPaAtmospheric pressure
HumidityMeteo Station%Relative humidity
Missing or incorrect values are displayed as -999
Metereological data collected by the RV Zeeleeuw from 2001-07-19 06:59:27 to 2001-07-19 14:35:00
Time Latitude Longitude Speed Direction Temperature Pressure Humidity
2001-07-19 07:00 51°14.084 2°55.466 -999 -999 16 99820 85
2001-07-19 07:04 51°14.485 2°54.758 -999 -999 16 99800 87
2001-07-19 07:05 51°14.59 2°54.543 -999 -999 16 99820 86
2001-07-19 07:06 51°14.699 2°54.319 -999 -999 15.9 99810 85
2001-07-19 07:07 51°14.807 2°54.09 -999 -999 15.9 99830 86
2001-07-19 07:08 51°14.913 2°53.859 -999 -999 15.9 99830 87
2001-07-19 07:09 51°15.025 2°53.638 -999 -999 15.9 99830 86
2001-07-19 07:10 51°15.084 2°53.48 -999 -999 15.9 99840 87
2001-07-19 07:11 51°15.09 2°53.443 -999 -999 15.8 99820 87
2001-07-19 07:12 51°15.06 2°53.436 -999 -999 15.8 99830 87
2001-07-19 09:10 51°17.575 2°52.435 -999 -999 15.8 99940 87
2001-07-19 09:11 51°17.366 2°52.384 -999 -999 15.7 99940 88
2001-07-19 09:12 51°17.145 2°52.426 -999 -999 15.6 99950 87
2001-07-19 09:13 51°16.953 2°52.602 -999 -999 15.5 99970 88
2001-07-19 09:14 51°16.75 2°52.758 -999 -999 15.5 99960 89
2001-07-19 09:15 51°16.572 2°52.981 -999 -999 15.5 99970 90
2001-07-19 09:16 51°16.38 2°53.183 -999 -999 15.5 99970 90
2001-07-19 09:17 51°16.185 2°53.39 -999 -999 15.4 99970 89
2001-07-19 09:18 51°16.054 2°53.489 -999 -999 15.4 99970 90
2001-07-19 09:22 51°16.028 2°53.65 -999 -999 15.4 99980 88
2001-07-19 09:23 51°16.017 2°53.687 -999 -999 15.4 99980 88
2001-07-19 09:24 51°16 2°53.717 -999 -999 15.4 99970 89
2001-07-19 09:25 51°15.946 2°53.803 -999 -999 15.5 99980 89
2001-07-19 09:26 51°15.999 2°54.017 -999 -999 15.5 99960 88
2001-07-19 09:27 51°16.15 2°54.145 -999 -999 15.6 99940 87
2001-07-19 09:28 51°16.315 2°54.255 -999 -999 15.6 99940 87
2001-07-19 09:29 51°16.48 2°54.38 -999 -999 15.6 99950 87
2001-07-19 09:30 51°16.638 2°54.529 -999 -999 15.7 99930 87
2001-07-19 09:31 51°16.741 2°54.636 -999 -999 15.7 99950 87
2001-07-19 09:32 51°16.761 2°54.693 -999 -999 15.8 99960 87
2001-07-19 09:33 51°16.754 2°54.73 -999 -999 15.8 99960 87
2001-07-19 09:34 51°16.754 2°54.777 -999 -999 15.8 99960 87
2001-07-19 09:35 51°16.758 2°54.829 -999 -999 15.8 99970 87
2001-07-19 09:36 51°16.761 2°54.885 -999 -999 15.8 99960 87
2001-07-19 09:37 51°16.772 2°54.951 -999 -999 15.9 99960 88
2001-07-19 09:38 51°16.862 2°55.04 -999 -999 16 99970 87
2001-07-19 09:39 51°17.017 2°55.045 -999 -999 15.9 99950 86
2001-07-19 09:40 51°17.187 2°55.074 -999 -999 15.9 99950 87
2001-07-19 09:41 51°17.344 2°55.071 -999 -999 15.9 99960 87
2001-07-19 09:42 51°17.395 2°55.1 -999 -999 16 99970 87
2001-07-19 09:43 51°17.406 2°55.155 -999 -999 15.9 99970 87
2001-07-19 09:44 51°17.418 2°55.213 -999 -999 15.9 99970 87
2001-07-19 09:45 51°17.43 2°55.268 -999 -999 15.9 99980 87
2001-07-19 09:46 51°17.44 2°55.319 -999 -999 16 99970 87
2001-07-19 09:47 51°17.45 2°55.374 -999 -999 16 99970 87
2001-07-19 09:48 51°17.468 2°55.446 -999 -999 16 99980 87
2001-07-19 09:49 51°17.48 2°55.542 -999 -999 15.9 99970 86
2001-07-19 09:50 51°17.472 2°55.636 -999 -999 15.9 99970 87
2001-07-19 09:51 51°17.453 2°55.72 -999 -999 15.8 99990 85
2001-07-19 09:52 51°17.431 2°55.804 -999 -999 16 99990 89
2001-07-19 09:53 51°17.407 2°55.889 -999 -999 16 99990 86
2001-07-19 09:54 51°17.385 2°55.971 -999 -999 16.1 99990 85
2001-07-19 09:55 51°17.367 2°56.047 -999 -999 16.1 99990 85
2001-07-19 09:56 51°17.354 2°56.117 -999 -999 16.1 100000 85
2001-07-19 09:57 51°17.346 2°56.182 -999 -999 16.1 100000 84
2001-07-19 09:58 51°17.353 2°56.232 -999 -999 16 100010 84
2001-07-19 09:59 51°17.372 2°56.27 -999 -999 16.2 100010 84
2001-07-19 10:00 51°17.398 2°56.294 -999 -999 16.3 100000 84
2001-07-19 10:01 51°17.415 2°56.336 -999 -999 16.2 100000 83
2001-07-19 10:02 51°17.443 2°56.446 -999 -999 16.2 99980 84
2001-07-19 10:03 51°17.517 2°56.478 -999 -999 16.2 99990 84
2001-07-19 10:04 51°17.517 2°56.423 -999 -999 16.1 99980 83
2001-07-19 10:05 51°17.465 2°56.355 -999 -999 16.1 99990 84
2001-07-19 10:06 51°17.443 2°56.292 -999 -999 16.1 99980 83
2001-07-19 10:07 51°17.429 2°56.245 -999 -999 16.2 99990 84
2001-07-19 10:08 51°17.395 2°56.22 -999 -999 16.2 100000 84
2001-07-19 10:09 51°17.361 2°56.188 -999 -999 16.2 99990 83
2001-07-19 10:10 51°17.343 2°56.164 -999 -999 16.2 99990 84
2001-07-19 10:11 51°17.34 2°56.158 -999 -999 16.2 99990 84
2001-07-19 10:12 51°17.343 2°56.165 -999 -999 16.2 99990 84
2001-07-19 10:13 51°17.344 2°56.179 -999 -999 16.1 99990 84
2001-07-19 10:14 51°17.344 2°56.196 -999 -999 16.1 100000 85
2001-07-19 10:15 51°17.343 2°56.212 -999 -999 16 100000 84
2001-07-19 10:16 51°17.333 2°56.218 -999 -999 16 99990 84
2001-07-19 10:17 51°17.325 2°56.188 -999 -999 16 100000 84
2001-07-19 10:18 51°17.333 2°56.145 -999 -999 16 99990 84
2001-07-19 10:19 51°17.35 2°56.147 -999 -999 16 99990 84
2001-07-19 10:20 51°17.357 2°56.172 -999 -999 15.9 99990 83
2001-07-19 10:21 51°17.358 2°56.205 -999 -999 16 100000 83
2001-07-19 10:22 51°17.355 2°56.232 -999 -999 16.1 100010 84
2001-07-19 10:23 51°17.342 2°56.217 -999 -999 16.1 100000 84
2001-07-19 10:24 51°17.331 2°56.141 -999 -999 16.2 100010 85
2001-07-19 10:25 51°17.347 2°56.065 -999 -999 16.2 99980 84
2001-07-19 10:26 51°17.355 2°56.05 -999 -999 16.2 100000 85
2001-07-19 10:27 51°17.361 2°56.069 -999 -999 16.1 99990 83
2001-07-19 10:28 51°17.362 2°56.125 -999 -999 16.1 99990 82
2001-07-19 10:29 51°17.361 2°56.16 -999 -999 16.1 100020 82
2001-07-19 10:30 51°17.4 2°56.121 -999 -999 16.2 100000 82
2001-07-19 10:31 51°17.493 2°56.259 -999 -999 16.2 100020 83
2001-07-19 10:32 51°17.619 2°56.421 -999 -999 16.3 100000 82
2001-07-19 10:33 51°17.744 2°56.617 -999 -999 16.2 100010 82
2001-07-19 10:34 51°17.88 2°56.806 -999 -999 16.3 100000 83
2001-07-19 10:36 51°18.005 2°56.965 3.9 51 16.2 100010 82
2001-07-19 10:37 51°18.013 2°57.016 7.5 320 16.2 100020 82
2001-07-19 10:38 51°18.022 2°57.1 5.3 127 16.4 100020 84
2001-07-19 10:41 51°17.937 2°56.924 9.3 299 16.3 100000 83
2001-07-19 10:42 51°17.934 2°56.912 9.4 317 16.3 100020 83
2001-07-19 10:43 51°17.937 2°56.943 9 304 16.1 100010 82
2001-07-19 10:44 51°17.94 2°56.982 6 283 16.2 100020 83
2001-07-19 10:45 51°17.944 2°57.028 8 249 16.2 100020 83
2001-07-19 10:46 51°17.921 2°57.066 4.9 198 16.2 100020 82
2001-07-19 10:47 51°17.908 2°57.203 0.5 62 16.3 100040 82
2001-07-19 10:48 51°17.986 2°57.35 12.2 52 16.3 100040 81
2001-07-19 10:49 51°18.116 2°57.462 13.6 41 16.4 100020 81
2001-07-19 10:56 51°18.326 2°57.873 8 303 16.4 100030 82
2001-07-19 10:57 51°18.329 2°57.894 6.7 290 16.3 100040 81
2001-07-19 10:58 51°18.333 2°57.924 7.2 291 16.4 100040 83
2001-07-19 10:59 51°18.338 2°57.963 6.4 284 16.4 100050 83
2001-07-19 11:00 51°18.343 2°58.01 8.7 272 16.5 100050 83
2001-07-19 11:01 51°18.346 2°58.054 9 275 16.4 100050 82
2001-07-19 11:02 51°18.322 2°58.036 7.3 276 16.3 100040 82
2001-07-19 11:03 51°18.295 2°57.966 8.6 305 16.3 100040 82
2001-07-19 11:04 51°18.278 2°57.875 11.3 308 16.3 100030 82
2001-07-19 11:05 51°18.258 2°57.782 9.3 300 16.2 100020 81
2001-07-19 11:06 51°18.21 2°57.709 9 274 16.3 100050 82
2001-07-19 11:07 51°18.156 2°57.64 9.2 277 16.3 100050 82
2001-07-19 11:08 51°18.104 2°57.569 9.8 272 16.3 100050 82
2001-07-19 11:39 51°16.413 2°55.226 8.4 299 16.2 100110 83
2001-07-19 11:40 51°16.334 2°55.139 7.5 299 16.1 100090 82
2001-07-19 11:41 51°16.171 2°54.999 6.5 309 16.2 100090 83
2001-07-19 11:42 51°15.974 2°54.914 7.7 299 16.2 100090 81
2001-07-19 11:43 51°15.775 2°54.839 7.6 296 16.2 100100 81
2001-07-19 11:44 51°15.566 2°54.823 6.1 280 16.1 100110 81
2001-07-19 11:45 51°15.356 2°54.794 5.6 288 16.1 100110 80
2001-07-19 11:46 51°15.15 2°54.767 5 294 16.1 100120 82
2001-07-19 11:47 51°14.942 2°54.762 5.6 281 16.2 100120 81
2001-07-19 11:48 51°14.735 2°54.773 7 270 16.2 100120 82
2001-07-19 11:49 51°14.528 2°54.882 4 259 16.2 100130 82
2001-07-19 11:50 51°14.348 2°55.087 2.3 213 16.1 100130 82
2001-07-19 11:51 51°14.225 2°55.318 2.3 218 16 100140 82
2001-07-19 11:52 51°14.086 2°55.456 3.8 225 16 100130 82
2001-07-19 11:53 51°13.991 2°55.508 2.2 321 16 100140 82
2001-07-19 11:54 51°13.899 2°55.572 2.4 238 16 100140 82
2001-07-19 11:55 51°13.793 2°55.651 1.7 280 16 100140 82
2001-07-19 11:56 51°13.723 2°55.742 1.6 155 16 100140 81
2001-07-19 11:57 51°13.702 2°55.814 3.4 146 16 100150 81
2001-07-19 11:58 51°13.688 2°55.872 5.4 146 16.1 100150 81
2001-07-19 11:59 51°13.678 2°55.918 4.2 208 16.2 100150 81
2001-07-19 12:00 51°13.675 2°55.924 6.8 175 16.3 100150 79
2001-07-19 12:01 51°13.675 2°55.924 4.3 198 16.4 100150 79
2001-07-19 12:02 51°13.675 2°55.925 4.8 181 16.5 100150 78
2001-07-19 12:03 51°13.676 2°55.925 3.9 154 16.6 100150 78
2001-07-19 12:04 51°13.676 2°55.925 4.7 181 16.8 100150 77
2001-07-19 12:05 51°13.676 2°55.925 4.7 179 16.9 100160 78
2001-07-19 12:06 51°13.676 2°55.924 2.7 171 16.8 100150 77
2001-07-19 12:25 51°13.676 2°55.925 3.5 175 16.1 100180 85
2001-07-19 12:26 51°13.677 2°55.924 5.3 174 16.1 100190 84
2001-07-19 12:27 51°13.677 2°55.925 3.3 174 16.1 100190 85
2001-07-19 12:31 51°13.674 2°55.925 4.9 189 15.7 100200 84
2001-07-19 12:32 51°13.674 2°55.924 3.4 152 15.7 100210 84
2001-07-19 12:33 51°13.675 2°55.925 2.3 153 15.6 100210 84
2001-07-19 12:34 51°13.676 2°55.925 4.7 160 15.6 100200 84
2001-07-19 12:35 51°13.675 2°55.925 3.1 180 15.7 100210 84
2001-07-19 12:36 51°13.675 2°55.925 2.9 186 15.7 100210 83
2001-07-19 12:37 51°13.675 2°55.925 6.3 175 15.7 100210 82
2001-07-19 12:38 51°13.676 2°55.925 2.9 174 15.6 100210 82
2001-07-19 12:39 51°13.676 2°55.925 4.1 186 15.6 100210 82
2001-07-19 12:40 51°13.677 2°55.924 3.6 198 15.7 100210 83
2001-07-19 12:41 51°13.677 2°55.924 3.5 189 15.7 100210 82
2001-07-19 12:42 51°13.677 2°55.924 4 157 15.7 100210 82
2001-07-19 12:43 51°13.677 2°55.924 6.7 169 15.8 100210 82
2001-07-19 12:44 51°13.677 2°55.924 5.1 159 15.7 100210 82
2001-07-19 12:45 51°13.677 2°55.924 3.4 176 15.8 100210 82
2001-07-19 12:46 51°13.677 2°55.924 5.4 189 15.9 100210 82
2001-07-19 12:47 51°13.677 2°55.924 4.4 197 15.8 100210 82
2001-07-19 12:48 51°13.677 2°55.925 4.5 207 15.7 100220 84
2001-07-19 12:49 51°13.676 2°55.925 6.4 183 15.7 100220 84
2001-07-19 12:50 51°13.676 2°55.924 4.5 170 15.6 100220 85
2001-07-19 12:51 51°13.675 2°55.924 4.8 186 15.5 100220 86
2001-07-19 12:52 51°13.675 2°55.924 3.3 196 15.5 100220 86
2001-07-19 12:53 51°13.675 2°55.924 5 205 15.5 100220 87
2001-07-19 12:54 51°13.675 2°55.925 6 198 15.4 100230 86
2001-07-19 12:55 51°13.675 2°55.924 5.4 205 15.3 100230 87
2001-07-19 12:56 51°13.675 2°55.924 3.5 195 15.2 100220 86
2001-07-19 12:57 51°13.676 2°55.924 2.8 167 15.2 100230 88
2001-07-19 12:58 51°13.676 2°55.924 3 190 15.2 100230 87
2001-07-19 12:59 51°13.675 2°55.924 4.1 179 15.2 100230 87
2001-07-19 13:00 51°13.676 2°55.924 2.5 185 15.2 100230 87
2001-07-19 13:01 51°13.677 2°55.924 2.3 192 15.1 100230 86
2001-07-19 13:02 51°13.677 2°55.924 2.8 168 15.1 100230 87